createdAt,value
2023-01-08T00:01:09.662Z,100797.23
2023-01-08T00:03:37.174Z,100795.20
2023-01-08T00:06:05.657Z,100796.46
2023-01-08T00:08:33.097Z,100797.22
2023-01-08T00:11:00.198Z,100797.35
2023-01-08T00:13:27.227Z,100794.71
2023-01-08T00:15:54.266Z,100797.58
2023-01-08T00:18:21.485Z,100801.58
2023-01-08T00:20:48.542Z,100804.95
2023-01-08T00:23:16.607Z,100801.89
2023-01-08T00:25:43.709Z,100802.23
2023-01-08T00:28:10.797Z,100802.14
2023-01-08T00:30:37.868Z,100805.63
2023-01-08T00:33:04.730Z,100802.29
2023-01-08T00:35:31.717Z,100803.20
2023-01-08T00:37:58.696Z,100800.51
2023-01-08T00:40:25.743Z,100799.05
2023-01-08T00:42:52.794Z,100796.38
2023-01-08T00:45:19.751Z,100798.27
2023-01-08T00:47:46.701Z,100797.17
2023-01-08T00:50:13.807Z,100795.59
2023-01-08T00:52:40.817Z,100798.09
2023-01-08T00:55:08.305Z,100801.30
2023-01-08T00:57:36.253Z,100800.81
2023-01-08T01:00:04.435Z,100800.66
2023-01-08T01:02:31.413Z,100793.48
2023-01-08T01:04:58.857Z,100790.58
2023-01-08T01:07:25.968Z,100793.64
2023-01-08T01:09:52.978Z,100785.06
2023-01-08T01:12:19.879Z,100776.03
2023-01-08T01:14:46.870Z,100777.89
2023-01-08T01:17:13.922Z,100776.83
2023-01-08T01:19:41.494Z,100781.98
2023-01-08T01:22:08.346Z,100781.70
2023-01-08T01:24:35.292Z,100781.90
2023-01-08T01:27:02.245Z,100782.09
2023-01-08T01:29:29.307Z,100781.13
2023-01-08T01:31:57.513Z,100783.05
2023-01-08T01:34:24.398Z,100780.59
2023-01-08T01:36:51.343Z,100785.35
2023-01-08T01:39:20.065Z,100786.16
2023-01-08T01:41:47.273Z,100783.87
2023-01-08T01:44:39.146Z,100784.13
2023-01-08T01:47:38.767Z,100779.26
2023-01-08T01:50:07.649Z,100780.92
2023-01-08T01:52:37.489Z,100777.05
2023-01-08T01:55:04.955Z,100779.52
2023-01-08T01:57:32.111Z,100779.64
2023-01-08T01:59:59.574Z,100781.37
2023-01-08T02:02:26.764Z,100780.77
2023-01-08T02:04:53.805Z,100780.61
2023-01-08T02:07:26.588Z,100779.73
2023-01-08T02:10:25.067Z,100782.77
2023-01-08T02:12:54.837Z,100786.57
2023-01-08T02:15:29.711Z,100784.57
2023-01-08T02:18:09.316Z,100780.94
2023-01-08T02:20:45.424Z,100774.98
2023-01-08T02:23:18.510Z,100779.70
2023-01-08T02:26:13.759Z,100785.27
2023-01-08T02:28:45.272Z,100782.94
2023-01-08T02:31:13.343Z,100782.17
2023-01-08T02:33:40.450Z,100787.15
2023-01-08T02:36:13.492Z,100787.11
2023-01-08T02:38:45.657Z,100790.92
2023-01-08T02:41:12.616Z,100792.99
2023-01-08T02:50:52.141Z,100790.80
2023-01-08T02:53:20.995Z,100796.16
2023-01-08T02:56:15.213Z,100792.64
2023-01-08T02:58:42.268Z,100786.83
2023-01-08T03:01:11.024Z,100788.11
2023-01-08T03:03:39.179Z,100788.39
2023-01-08T03:06:10.969Z,100793.28
2023-01-08T03:08:39.557Z,100791.16
2023-01-08T03:11:14.000Z,100786.50
2023-01-08T03:14:23.190Z,100776.86
2023-01-08T03:16:58.039Z,100773.65
2023-01-08T03:19:46.793Z,100771.72
2023-01-08T03:22:15.177Z,100774.71
2023-01-08T03:24:43.051Z,100779.00
2023-01-08T03:27:12.602Z,100778.83
2023-01-08T03:29:39.539Z,100777.42
2023-01-08T03:32:11.639Z,100774.95
2023-01-08T03:34:39.487Z,100778.67
2023-01-08T03:37:07.880Z,100783.09
2023-01-08T03:39:41.775Z,100784.40
2023-01-08T03:42:10.305Z,100786.07
2023-01-08T03:44:37.290Z,100784.10
2023-01-08T03:47:04.374Z,100781.60
2023-01-08T03:49:31.405Z,100785.30
2023-01-08T03:51:58.355Z,100781.77
2023-01-08T03:54:27.520Z,100784.66
2023-01-08T03:56:54.514Z,100783.82
2023-01-08T03:59:21.735Z,100785.25
2023-01-08T04:01:48.697Z,100785.48
2023-01-08T04:04:15.916Z,100785.48
2023-01-08T04:06:43.264Z,100786.18
2023-01-08T04:09:10.386Z,100787.30
2023-01-08T04:11:37.259Z,100785.20
2023-01-08T04:14:04.208Z,100788.36
2023-01-08T04:16:32.084Z,100789.38
2023-01-08T04:18:59.058Z,100790.81
2023-01-08T04:21:26.399Z,100788.88
2023-01-08T04:23:54.471Z,100787.45
2023-01-08T04:26:21.468Z,100786.89
2023-01-08T04:28:48.339Z,100786.58
2023-01-08T04:31:15.369Z,100780.42
2023-01-08T04:33:42.295Z,100780.83
2023-01-08T04:36:10.475Z,100784.55
2023-01-08T04:38:37.427Z,100784.14
2023-01-08T04:41:04.328Z,100788.86
2023-01-08T04:43:31.481Z,100791.56
2023-01-08T04:46:02.598Z,100793.95
2023-01-08T04:48:30.160Z,100791.46
2023-01-08T04:51:00.753Z,100787.27
2023-01-08T04:53:28.328Z,100789.14
2023-01-08T04:55:55.151Z,100786.68
2023-01-08T04:58:22.178Z,100786.08
2023-01-08T05:00:49.227Z,100786.97
2023-01-08T05:03:16.232Z,100794.66
2023-01-08T05:05:43.344Z,100790.34
2023-01-08T05:08:10.309Z,100799.13
2023-01-08T05:10:37.154Z,100800.38
2023-01-08T05:13:04.099Z,100807.37
2023-01-08T05:15:31.043Z,100808.23
2023-01-08T05:18:02.211Z,100805.67
2023-01-08T05:20:29.252Z,100806.52
2023-01-08T05:22:56.825Z,100809.42
2023-01-08T05:25:23.778Z,100804.39
2023-01-08T05:27:50.846Z,100802.60
2023-01-08T05:30:17.837Z,100800.48
2023-01-08T05:32:44.739Z,100803.80
2023-01-08T05:35:11.630Z,100806.17
2023-01-08T05:37:38.858Z,100809.36
2023-01-08T05:40:06.334Z,100814.65
2023-01-08T05:42:36.430Z,100805.19
2023-01-08T05:45:07.096Z,100804.46
2023-01-08T05:47:34.661Z,100808.65
2023-01-08T05:50:02.221Z,100809.63
2023-01-08T05:52:29.384Z,100810.42
2023-01-08T05:54:56.253Z,100813.23
2023-01-08T05:57:23.195Z,100818.11
2023-01-08T05:59:50.142Z,100824.79
2023-01-08T06:02:17.046Z,100825.55
2023-01-08T06:04:44.249Z,100825.16
2023-01-08T06:07:11.192Z,100820.20
2023-01-08T06:09:38.247Z,100821.39
2023-01-08T06:12:05.325Z,100824.30
2023-01-08T06:14:32.351Z,100822.08
2023-01-08T06:16:59.207Z,100824.12
2023-01-08T06:19:26.080Z,100828.72
2023-01-08T06:21:53.201Z,100828.80
2023-01-08T06:24:20.156Z,100827.63
2023-01-08T06:26:47.127Z,100827.20
2023-01-08T06:29:14.167Z,100822.80
2023-01-08T06:31:41.227Z,100819.87
2023-01-08T06:34:08.237Z,100814.34
2023-01-08T06:36:35.259Z,100818.63
2023-01-08T06:39:02.184Z,100818.21
2023-01-08T06:41:29.141Z,100816.63
2023-01-08T06:43:56.099Z,100816.45
2023-01-08T06:46:23.079Z,100818.96
2023-01-08T06:48:49.921Z,100825.27
2023-01-08T06:51:16.984Z,100821.92
2023-01-08T06:53:43.910Z,100819.03
2023-01-08T06:56:11.158Z,100820.80
2023-01-08T06:58:38.532Z,100825.33
2023-01-08T07:01:05.606Z,100825.05
2023-01-08T07:03:32.595Z,100821.89
2023-01-08T07:06:02.787Z,100821.64
2023-01-08T07:08:29.742Z,100822.05
2023-01-08T07:10:56.728Z,100821.24
2023-01-08T07:13:24.510Z,100817.80
2023-01-08T07:15:51.538Z,100820.04
2023-01-08T07:18:18.582Z,100821.27
2023-01-08T07:20:45.510Z,100822.65
2023-01-08T07:23:12.414Z,100822.92
2023-01-08T07:25:42.371Z,100819.82
2023-01-08T07:28:11.877Z,100819.23
2023-01-08T07:30:38.955Z,100821.46
2023-01-08T07:33:09.087Z,100822.49
2023-01-08T07:35:36.074Z,100823.66
2023-01-08T07:38:05.928Z,100821.02
2023-01-08T07:40:33.023Z,100821.80
2023-01-08T07:43:00.796Z,100823.51
2023-01-08T07:45:30.771Z,100823.50
2023-01-08T07:48:05.730Z,100824.99
2023-01-08T07:50:37.441Z,100828.95
2023-01-08T07:53:05.120Z,100829.38
2023-01-08T07:55:32.070Z,100826.20
2023-01-08T07:58:09.457Z,100827.02
2023-01-08T08:00:47.779Z,100826.99
2023-01-08T08:03:15.834Z,100824.84
2023-01-08T08:05:43.021Z,100827.02
2023-01-08T08:08:11.107Z,100827.40
2023-01-08T08:10:41.614Z,100829.45
2023-01-08T08:13:13.419Z,100827.52
2023-01-08T08:15:43.581Z,100830.27
2023-01-08T08:18:14.443Z,100829.73
2023-01-08T08:20:41.494Z,100833.00
2023-01-08T08:23:10.056Z,100833.73
2023-01-08T08:25:40.293Z,100834.09
2023-01-08T08:28:08.099Z,100832.02
2023-01-08T08:30:35.875Z,100830.30
2023-01-08T08:33:05.297Z,100835.39
2023-01-08T08:35:33.135Z,100833.02
2023-01-08T08:38:00.194Z,100828.16
2023-01-08T08:40:27.460Z,100829.17
2023-01-08T08:43:01.649Z,100827.78
2023-01-08T08:45:28.718Z,100830.70
2023-01-08T08:47:55.654Z,100831.81
2023-01-08T08:50:22.877Z,100829.41
2023-01-08T08:52:49.874Z,100822.80
2023-01-08T08:55:17.753Z,100817.82
2023-01-08T08:57:49.462Z,100809.31
2023-01-08T09:00:17.042Z,100811.54
2023-01-08T09:02:44.206Z,100807.54
2023-01-08T09:05:11.849Z,100807.96
2023-01-08T09:07:41.316Z,100810.07
2023-01-08T09:10:08.966Z,100803.42
2023-01-08T09:12:35.907Z,100798.16
2023-01-08T09:15:02.825Z,100798.02
2023-01-08T09:17:29.793Z,100795.96
2023-01-08T09:19:56.766Z,100798.11
2023-01-08T09:22:23.727Z,100800.13
2023-01-08T09:24:50.628Z,100801.90
2023-01-08T09:27:17.833Z,100801.81
2023-01-08T09:29:44.997Z,100801.49
2023-01-08T09:32:16.274Z,100799.20
2023-01-08T09:34:43.450Z,100798.85
2023-01-08T09:37:10.446Z,100793.69
2023-01-08T09:39:37.395Z,100792.70
2023-01-08T09:42:09.588Z,100795.52
2023-01-08T09:44:39.158Z,100796.48
2023-01-08T09:47:07.530Z,100791.30
2023-01-08T09:49:44.622Z,100789.78
2023-01-08T09:52:16.909Z,100782.88
2023-01-08T09:54:43.987Z,100781.05
2023-01-08T09:57:16.369Z,100779.61
2023-01-08T09:59:45.446Z,100777.73
2023-01-08T10:02:17.879Z,100780.35
2023-01-08T10:04:46.673Z,100784.98
2023-01-08T10:07:28.633Z,100777.71
2023-01-08T10:09:55.906Z,100776.21
2023-01-08T10:12:35.639Z,100775.95
2023-01-08T10:18:06.336Z,100771.40
2023-01-08T10:20:33.975Z,100771.11
2023-01-08T10:23:12.324Z,100768.41
2023-01-08T10:26:02.069Z,100770.91
2023-01-08T10:28:32.033Z,100772.30
2023-01-08T10:31:08.363Z,100772.63
2023-01-08T10:33:41.255Z,100777.45
2023-01-08T10:36:09.312Z,100775.10
2023-01-08T10:38:38.407Z,100771.84
2023-01-08T10:41:06.320Z,100766.11
2023-01-08T10:43:41.843Z,100763.48
2023-01-08T10:46:16.053Z,100760.88
2023-01-08T10:48:47.928Z,100757.52
2023-01-08T10:51:25.845Z,100756.56
2023-01-08T10:53:53.909Z,100754.78
2023-01-08T10:56:22.405Z,100750.39
2023-01-08T10:58:49.539Z,100750.61
2023-01-08T11:01:19.618Z,100748.52
2023-01-08T11:04:01.312Z,100757.66
2023-01-08T11:06:34.202Z,100758.52
2023-01-08T11:09:02.477Z,100755.34
2023-01-08T11:11:33.660Z,100752.47
2023-01-08T11:14:02.651Z,100750.31
2023-01-08T11:16:35.223Z,100748.19
2023-01-08T11:19:02.220Z,100746.35
2023-01-08T11:21:33.754Z,100744.46
2023-01-08T11:24:12.945Z,100747.91
2023-01-08T11:26:40.940Z,100748.32
2023-01-08T11:29:52.142Z,100749.60
2023-01-08T11:32:40.473Z,100746.41
2023-01-08T11:35:26.865Z,100742.14
2023-01-08T11:37:58.438Z,100749.63
2023-01-08T11:40:47.835Z,100751.17
2023-01-08T11:43:18.881Z,100747.92
2023-01-08T11:45:51.978Z,100746.42
2023-01-08T11:48:38.033Z,100743.88
2023-01-08T11:51:28.735Z,100739.30
2023-01-08T11:54:34.969Z,100740.70
2023-01-08T11:57:14.015Z,100741.89
2023-01-08T11:59:59.296Z,100740.59
2023-01-08T12:02:47.569Z,100741.92
2023-01-08T12:05:31.166Z,100741.25
2023-01-08T12:08:08.157Z,100737.46
2023-01-08T12:10:44.554Z,100732.91
2023-01-08T12:13:33.452Z,100729.70
2023-01-08T12:16:20.476Z,100724.91
2023-01-08T12:19:00.255Z,100723.77
2023-01-08T12:21:34.082Z,100724.64
2023-01-08T12:24:13.128Z,100723.14
2023-01-08T12:26:59.791Z,100720.58
2023-01-08T12:29:26.840Z,100720.41
2023-01-08T12:32:32.859Z,100717.55
2023-01-08T12:35:16.364Z,100711.77
2023-01-08T12:37:52.154Z,100710.96
2023-01-08T12:40:36.274Z,100712.64
2023-01-08T12:43:07.929Z,100708.90
2023-01-08T12:45:43.790Z,100701.85
2023-01-08T12:48:24.961Z,100703.48
2023-01-08T12:51:07.621Z,100700.77
2023-01-08T12:54:04.761Z,100696.07
2023-01-08T12:56:42.269Z,100695.98
2023-01-08T12:59:21.775Z,100692.98
2023-01-08T13:02:04.697Z,100694.77
2023-01-08T13:04:45.059Z,100695.58
2023-01-08T13:07:31.295Z,100696.97
2023-01-08T13:10:06.908Z,100690.96
2023-01-08T13:12:40.435Z,100696.52
2023-01-08T13:15:07.959Z,100696.59
2023-01-08T13:17:35.817Z,100695.52
2023-01-08T13:20:08.720Z,100697.71
2023-01-08T13:22:38.705Z,100697.68
2023-01-08T13:25:27.940Z,100696.48
2023-01-08T13:27:55.177Z,100700.44
2023-01-08T13:30:44.196Z,100701.63
2023-01-08T13:33:43.489Z,100701.32
2023-01-08T13:36:13.667Z,100695.04
2023-01-08T13:38:41.447Z,100697.65
2023-01-08T13:41:34.966Z,100697.04
2023-01-08T13:44:26.040Z,100690.42
2023-01-08T13:47:17.375Z,100685.39
2023-01-08T13:49:45.322Z,100685.45
2023-01-08T13:52:33.035Z,100688.71
2023-01-08T13:55:15.173Z,100689.19
2023-01-08T13:57:48.543Z,100683.54
2023-01-08T14:00:42.735Z,100679.11
2023-01-08T14:06:23.225Z,100668.90
2023-01-08T14:08:56.714Z,100668.16
2023-01-08T14:11:44.801Z,100668.77
2023-01-08T14:14:20.600Z,100659.14
2023-01-08T14:16:48.451Z,100657.09
2023-01-08T14:19:21.422Z,100652.70
2023-01-08T14:21:53.019Z,100649.27
2023-01-08T14:24:20.225Z,100653.42
2023-01-08T14:26:54.109Z,100650.52
2023-01-08T14:29:22.952Z,100645.59
2023-01-08T14:31:54.201Z,100644.16
2023-01-08T14:34:22.258Z,100646.02
2023-01-08T14:36:50.856Z,100647.39
2023-01-08T14:39:20.787Z,100644.04
2023-01-08T14:42:06.479Z,100642.54
2023-01-08T14:44:40.390Z,100639.67
2023-01-08T14:47:15.413Z,100638.98
2023-01-08T14:49:44.866Z,100636.89
2023-01-08T14:52:13.163Z,100637.45
2023-01-08T14:54:40.074Z,100638.09
2023-01-08T14:57:06.938Z,100642.20
2023-01-08T14:59:37.592Z,100640.48
2023-01-08T15:02:05.256Z,100640.02
2023-01-08T15:04:32.341Z,100639.47
2023-01-08T15:07:16.807Z,100638.84
2023-01-08T15:09:44.196Z,100639.44
2023-01-08T15:12:26.228Z,100634.26
2023-01-08T15:14:55.359Z,100636.19
2023-01-08T15:17:26.773Z,100637.34
2023-01-08T15:19:55.675Z,100636.82
2023-01-08T15:22:32.841Z,100635.91
2023-01-08T15:25:01.189Z,100633.83
2023-01-08T15:27:28.248Z,100635.52
2023-01-08T15:30:03.840Z,100634.70
2023-01-08T15:32:34.193Z,100633.85
2023-01-08T15:35:01.337Z,100632.70
2023-01-08T15:37:28.429Z,100628.70
2023-01-08T15:39:55.410Z,100635.75
2023-01-08T15:42:50.362Z,100636.75
2023-01-08T15:45:18.230Z,100644.20
2023-01-08T15:47:45.675Z,100645.09
2023-01-08T15:50:16.807Z,100644.23
2023-01-08T15:52:43.893Z,100642.07
2023-01-08T15:55:18.585Z,100638.45
2023-01-08T15:57:46.876Z,100636.48
2023-01-08T16:00:17.867Z,100631.67
2023-01-08T16:05:29.722Z,100626.27
2023-01-08T16:07:59.916Z,100624.42
2023-01-08T16:10:30.375Z,100626.31
2023-01-08T16:12:57.438Z,100622.71
2023-01-08T16:15:24.524Z,100624.04
2023-01-08T16:17:54.937Z,100621.64
2023-01-08T16:20:24.827Z,100625.02
2023-01-08T16:22:52.042Z,100628.10
2023-01-08T16:25:20.680Z,100624.59
2023-01-08T16:30:34.870Z,100629.55
2023-01-08T16:33:02.121Z,100628.67
2023-01-08T16:35:30.075Z,100627.45
2023-01-08T16:37:57.067Z,100628.23
2023-01-08T16:40:29.191Z,100633.66
2023-01-08T16:43:00.015Z,100636.73
2023-01-08T16:45:26.965Z,100634.50
2023-01-08T16:47:54.001Z,100629.59
2023-01-08T16:50:20.992Z,100630.59
2023-01-08T16:52:47.845Z,100628.86
2023-01-08T16:55:14.804Z,100629.38
2023-01-08T16:57:41.923Z,100628.13
2023-01-08T17:00:09.679Z,100631.08
2023-01-08T17:02:36.837Z,100629.45
2023-01-08T17:05:03.932Z,100627.25
2023-01-08T17:07:30.873Z,100630.08
2023-01-08T17:09:57.880Z,100628.85
2023-01-08T17:12:24.845Z,100629.25
2023-01-08T17:14:54.748Z,100625.48
2023-01-08T17:17:21.852Z,100623.96
2023-01-08T17:19:48.837Z,100627.41
2023-01-08T17:22:15.901Z,100629.90
2023-01-08T17:24:43.597Z,100629.48
2023-01-08T17:27:12.017Z,100628.83
2023-01-08T17:29:39.193Z,100627.59
2023-01-08T17:32:06.226Z,100629.23
2023-01-08T17:34:33.356Z,100635.30
2023-01-08T17:37:00.322Z,100634.05
2023-01-08T17:39:27.294Z,100634.15
2023-01-08T17:42:13.275Z,100636.08
2023-01-08T17:44:40.294Z,100638.16
2023-01-08T17:47:07.363Z,100636.98
2023-01-08T17:49:34.341Z,100631.52
2023-01-08T17:52:01.311Z,100631.71
2023-01-08T17:54:28.929Z,100636.21
2023-01-08T17:56:55.975Z,100637.45
2023-01-08T17:59:24.271Z,100636.15
2023-01-08T18:01:52.023Z,100636.66
2023-01-08T18:04:19.247Z,100639.20
2023-01-08T18:06:46.097Z,100638.63
2023-01-08T18:09:13.307Z,100635.58
2023-01-08T18:11:40.984Z,100636.63
2023-01-08T18:14:10.285Z,100638.42
2023-01-08T18:16:39.613Z,100633.71
2023-01-08T18:19:06.753Z,100635.41
2023-01-08T18:21:33.646Z,100627.08
2023-01-08T18:24:01.097Z,100628.04
2023-01-08T18:26:29.216Z,100625.19
2023-01-08T18:28:59.381Z,100628.80
2023-01-08T18:31:26.316Z,100627.54
2023-01-08T18:33:53.219Z,100628.02
2023-01-08T18:36:20.253Z,100625.44
2023-01-08T18:38:48.578Z,100619.64
2023-01-08T18:41:35.767Z,100616.29
2023-01-08T18:44:04.427Z,100617.13
2023-01-08T18:46:31.442Z,100613.05
2023-01-08T18:48:58.719Z,100616.64
2023-01-08T18:51:25.692Z,100614.85
2023-01-08T18:53:53.296Z,100613.60
2023-01-08T18:56:26.787Z,100606.39
2023-01-08T18:58:53.684Z,100603.31
2023-01-08T19:01:20.831Z,100607.92
2023-01-08T19:03:47.956Z,100611.14
2023-01-08T19:06:17.752Z,100610.73
2023-01-08T19:08:45.014Z,100606.31
2023-01-08T19:11:12.393Z,100607.59
2023-01-08T19:13:39.573Z,100610.39
2023-01-08T19:16:07.991Z,100610.55
2023-01-08T19:18:34.941Z,100604.24
2023-01-08T19:21:01.793Z,100599.35
2023-01-08T19:23:28.765Z,100596.13
2023-01-08T19:25:55.675Z,100603.20
2023-01-08T19:28:22.650Z,100600.16
2023-01-08T19:30:56.546Z,100593.96
2023-01-08T19:33:23.660Z,100597.27
2023-01-08T19:35:50.857Z,100595.48
2023-01-08T19:38:18.311Z,100593.05
2023-01-08T19:40:45.279Z,100596.27
2023-01-08T19:43:31.480Z,100594.31
2023-01-08T19:46:05.321Z,100588.88
2023-01-08T19:48:32.783Z,100583.86
2023-01-08T19:51:00.463Z,100586.17
2023-01-08T19:53:27.553Z,100586.69
2023-01-08T19:55:54.533Z,100590.13
2023-01-08T19:58:23.532Z,100592.27
2023-01-08T20:00:51.969Z,100595.22
2023-01-08T20:03:23.733Z,100598.00
2023-01-08T20:05:50.645Z,100596.89
2023-01-08T20:08:17.942Z,100588.95
2023-01-08T20:10:44.861Z,100587.76
2023-01-08T20:13:11.838Z,100584.26
2023-01-08T20:15:38.721Z,100579.60
2023-01-08T20:18:06.168Z,100576.90
2023-01-08T20:20:33.116Z,100571.69
2023-01-08T20:23:00.112Z,100569.92
2023-01-08T20:25:27.024Z,100572.77
2023-01-08T20:27:53.989Z,100580.07
2023-01-08T20:30:20.893Z,100572.96
2023-01-08T20:32:47.895Z,100566.46
2023-01-08T20:35:14.945Z,100567.11
2023-01-08T20:37:42.310Z,100570.46
2023-01-08T20:40:09.811Z,100571.94
2023-01-08T20:42:36.831Z,100572.34
2023-01-08T20:45:04.059Z,100567.42
2023-01-08T20:47:31.661Z,100568.02
2023-01-08T20:49:58.611Z,100568.65
2023-01-08T20:52:25.563Z,100569.14
2023-01-08T20:54:53.184Z,100566.61
2023-01-08T20:57:20.186Z,100564.84
2023-01-08T20:59:47.134Z,100562.05
2023-01-08T21:02:14.086Z,100553.38
2023-01-08T21:04:41.860Z,100556.55
2023-01-08T21:07:08.914Z,100556.92
2023-01-08T21:09:35.825Z,100551.61
2023-01-08T21:15:45.035Z,100539.09
2023-01-08T21:18:16.246Z,100533.52
2023-01-08T21:21:09.910Z,100535.17
2023-01-08T21:24:04.523Z,100542.92
2023-01-08T21:29:29.017Z,100546.80
2023-01-08T21:31:56.094Z,100547.60
2023-01-08T21:34:23.012Z,100552.39
2023-01-08T21:36:49.963Z,100550.86
2023-01-08T21:39:16.927Z,100544.89
2023-01-08T21:42:02.713Z,100542.12
2023-01-08T21:44:48.057Z,100533.77
2023-01-08T21:47:16.925Z,100525.73
2023-01-08T21:49:44.571Z,100524.67
2023-01-08T21:52:30.252Z,100522.30
2023-01-08T21:54:58.387Z,100517.28
2023-01-08T21:57:27.944Z,100516.74
2023-01-08T21:59:55.277Z,100517.48
2023-01-08T22:02:23.296Z,100510.39
2023-01-08T22:04:50.414Z,100503.05
2023-01-08T22:07:17.396Z,100501.34
2023-01-08T22:09:44.253Z,100498.79
2023-01-08T22:12:11.052Z,100500.27
2023-01-08T22:14:38.131Z,100503.80
2023-01-08T22:17:08.508Z,100497.27
2023-01-08T22:19:38.078Z,100492.00
2023-01-08T22:22:05.025Z,100483.65
2023-01-08T22:24:31.958Z,100478.84
2023-01-08T22:26:58.851Z,100483.88
2023-01-08T22:29:25.753Z,100477.89
2023-01-08T22:31:52.675Z,100475.05
2023-01-08T22:34:19.688Z,100478.84
2023-01-08T22:36:47.068Z,100476.66
2023-01-08T22:39:13.933Z,100470.56
2023-01-08T22:41:41.369Z,100471.97
2023-01-08T22:44:11.291Z,100464.38
2023-01-08T22:46:38.153Z,100459.54
2023-01-08T22:49:05.110Z,100460.29
2023-01-08T22:51:32.254Z,100457.98
2023-01-08T22:53:59.350Z,100459.70
2023-01-08T22:56:26.775Z,100454.77
2023-01-08T22:58:53.740Z,100454.16
2023-01-08T23:01:25.367Z,100450.35
2023-01-08T23:03:54.098Z,100455.63
2023-01-08T23:06:21.507Z,100451.15
2023-01-08T23:08:48.707Z,100454.83
2023-01-08T23:11:17.573Z,100448.64
2023-01-08T23:13:44.506Z,100446.90
2023-01-08T23:16:13.507Z,100446.16
2023-01-08T23:18:40.557Z,100442.34
2023-01-08T23:21:09.729Z,100444.11
2023-01-08T23:23:36.880Z,100439.84
2023-01-08T23:26:08.637Z,100436.75
2023-01-08T23:28:35.599Z,100426.94
2023-01-08T23:31:07.293Z,100427.29
2023-01-08T23:33:34.206Z,100423.11
2023-01-08T23:36:01.353Z,100414.73
2023-01-08T23:41:56.872Z,100413.58
2023-01-08T23:44:23.927Z,100411.76
2023-01-08T23:46:50.812Z,100411.32
2023-01-08T23:49:17.707Z,100410.61
2023-01-08T23:51:44.677Z,100416.76
2023-01-08T23:54:11.770Z,100415.48
2023-01-08T23:56:39.266Z,100416.61
2023-01-08T23:59:06.362Z,100408.33
